sensor_id;sensor_type;location;lat;lon;timestamp;pressure;altitude;pressure_sealevel;temperature;humidity
63654;BME280;49809;47.418;19.080;2023-04-28T00:03:01;101048.38;;;3.58;91.68
63654;BME280;49809;47.418;19.080;2023-04-28T00:06:19;101056.16;;;3.52;92.08
63654;BME280;49809;47.418;19.080;2023-04-28T00:09:57;101053.09;;;3.48;91.61
63654;BME280;49809;47.418;19.080;2023-04-28T00:13:14;101050.84;;;3.45;91.55
63654;BME280;49809;47.418;19.080;2023-04-28T00:16:33;101042.75;;;3.40;91.52
63654;BME280;49809;47.418;19.080;2023-04-28T00:20:03;101043.13;;;3.37;91.94
63654;BME280;49809;47.418;19.080;2023-04-28T00:23:34;101036.69;;;3.39;93.06
63654;BME280;49809;47.418;19.080;2023-04-28T00:26:54;101037.63;;;3.32;92.86
63654;BME280;49809;47.418;19.080;2023-04-28T00:30:23;101036.75;;;3.25;93.12
63654;BME280;49809;47.418;19.080;2023-04-28T00:33:43;101034.50;;;3.22;93.13
63654;BME280;49809;47.418;19.080;2023-04-28T00:37:09;101038.50;;;3.18;93.01
63654;BME280;49809;47.418;19.080;2023-04-28T00:40:38;101031.50;;;3.25;93.59
63654;BME280;49809;47.418;19.080;2023-04-28T00:43:55;101032.56;;;3.30;93.32
63654;BME280;49809;47.418;19.080;2023-04-28T00:54:42;101027.13;;;3.11;94.76
63654;BME280;49809;47.418;19.080;2023-04-28T00:58:16;101030.75;;;3.10;94.70
63654;BME280;49809;47.418;19.080;2023-04-28T01:02:01;101037.03;;;3.15;94.77
63654;BME280;49809;47.418;19.080;2023-04-28T01:05:33;101040.16;;;3.04;94.09
63654;BME280;49809;47.418;19.080;2023-04-28T01:08:54;101043.22;;;2.93;93.96
63654;BME280;49809;47.418;19.080;2023-04-28T01:12:14;101051.88;;;2.93;94.19
63654;BME280;49809;47.418;19.080;2023-04-28T01:15:35;101041.81;;;2.90;94.84
63654;BME280;49809;47.418;19.080;2023-04-28T01:19:18;101047.03;;;2.90;95.03
63654;BME280;49809;47.418;19.080;2023-04-28T01:22:38;101048.56;;;2.85;94.98
63654;BME280;49809;47.418;19.080;2023-04-28T01:26:12;101051.38;;;2.83;95.16
63654;BME280;49809;47.418;19.080;2023-04-28T01:29:30;101044.88;;;2.79;95.41
63654;BME280;49809;47.418;19.080;2023-04-28T01:33:00;101046.25;;;2.75;95.68
63654;BME280;49809;47.418;19.080;2023-04-28T01:36:20;101059.66;;;2.72;95.88
63654;BME280;49809;47.418;19.080;2023-04-28T01:39:45;101057.41;;;2.69;95.50
63654;BME280;49809;47.418;19.080;2023-04-28T01:43:22;101041.56;;;2.71;95.41
63654;BME280;49809;47.418;19.080;2023-04-28T01:46:51;101046.69;;;2.64;95.71
63654;BME280;49809;47.418;19.080;2023-04-28T01:50:24;101039.03;;;2.62;96.10
63654;BME280;49809;47.418;19.080;2023-04-28T01:53:59;101035.97;;;2.59;96.27
63654;BME280;49809;47.418;19.080;2023-04-28T01:57:17;101038.41;;;2.60;95.96
63654;BME280;49809;47.418;19.080;2023-04-28T02:00:44;101035.53;;;2.55;96.06
63654;BME280;49809;47.418;19.080;2023-04-28T02:04:02;101034.53;;;2.56;95.77
63654;BME280;49809;47.418;19.080;2023-04-28T02:07:34;101051.66;;;2.59;95.75
63654;BME280;49809;47.418;19.080;2023-04-28T02:11:09;101052.38;;;2.53;95.68
63654;BME280;49809;47.418;19.080;2023-04-28T02:14:42;101051.00;;;2.57;95.80
63654;BME280;49809;47.418;19.080;2023-04-28T02:18:17;101054.25;;;2.59;97.61
63654;BME280;49809;47.418;19.080;2023-04-28T02:21:36;101049.75;;;2.53;97.65
63654;BME280;49809;47.418;19.080;2023-04-28T02:25:01;101054.63;;;2.56;98.08
63654;BME280;49809;47.418;19.080;2023-04-28T02:28:18;101048.94;;;2.52;97.71
63654;BME280;49809;47.418;19.080;2023-04-28T02:31:47;101050.84;;;2.44;97.43
63654;BME280;49809;47.418;19.080;2023-04-28T02:35:21;101052.28;;;2.46;97.68
63654;BME280;49809;47.418;19.080;2023-04-28T02:38:45;101058.34;;;2.47;97.81
63654;BME280;49809;47.418;19.080;2023-04-28T02:42:07;101059.47;;;2.44;98.42
63654;BME280;49809;47.418;19.080;2023-04-28T02:45:46;101060.66;;;2.42;97.80
63654;BME280;49809;47.418;19.080;2023-04-28T02:49:19;101057.13;;;2.35;97.25
63654;BME280;49809;47.418;19.080;2023-04-28T02:52:41;101060.28;;;2.30;97.17
63654;BME280;49809;47.418;19.080;2023-04-28T02:56:16;101054.63;;;2.27;97.43
63654;BME280;49809;47.418;19.080;2023-04-28T02:59:51;101055.50;;;2.19;97.90
63654;BME280;49809;47.418;19.080;2023-04-28T03:03:08;101052.44;;;2.15;98.44
63654;BME280;49809;47.418;19.080;2023-04-28T03:06:35;101062.44;;;2.12;98.23
63654;BME280;49809;47.418;19.080;2023-04-28T03:09:54;101062.88;;;2.15;98.86
63654;BME280;49809;47.418;19.080;2023-04-28T03:13:15;101074.03;;;2.09;98.43
63654;BME280;49809;47.418;19.080;2023-04-28T03:16:44;101074.31;;;2.14;98.68
63654;BME280;49809;47.418;19.080;2023-04-28T03:20:14;101077.28;;;2.11;98.75
63654;BME280;49809;47.418;19.080;2023-04-28T03:23:48;101077.91;;;2.13;99.64
63654;BME280;49809;47.418;19.080;2023-04-28T03:27:17;101086.09;;;2.10;99.36
63654;BME280;49809;47.418;19.080;2023-04-28T03:30:50;101090.97;;;2.13;99.71
63654;BME280;49809;47.418;19.080;2023-04-28T03:34:11;101078.34;;;2.02;99.12
63654;BME280;49809;47.418;19.080;2023-04-28T03:37:39;101081.84;;;2.09;99.66
63654;BME280;49809;47.418;19.080;2023-04-28T03:41:03;101079.91;;;2.11;100.00
63654;BME280;49809;47.418;19.080;2023-04-28T03:44:37;101077.63;;;2.08;100.00
63654;BME280;49809;47.418;19.080;2023-04-28T03:48:10;101086.47;;;2.07;100.00
63654;BME280;49809;47.418;19.080;2023-04-28T03:51:43;101076.00;;;2.07;100.00
63654;BME280;49809;47.418;19.080;2023-04-28T03:55:13;101083.41;;;2.18;100.00
63654;BME280;49809;47.418;19.080;2023-04-28T03:58:44;101083.63;;;2.32;100.00
63654;BME280;49809;47.418;19.080;2023-04-28T04:02:21;101084.44;;;2.32;100.00
63654;BME280;49809;47.418;19.080;2023-04-28T04:05:45;101091.00;;;2.43;100.00
63654;BME280;49809;47.418;19.080;2023-04-28T04:09:14;101087.53;;;2.50;100.00
63654;BME280;49809;47.418;19.080;2023-04-28T04:12:43;101085.34;;;2.54;100.00
63654;BME280;49809;47.418;19.080;2023-04-28T04:16:11;101094.37;;;2.66;100.00
63654;BME280;49809;47.418;19.080;2023-04-28T04:19:48;101089.31;;;2.79;99.78
63654;BME280;49809;47.418;19.080;2023-04-28T04:23:26;101097.22;;;3.00;99.62
63654;BME280;49809;47.418;19.080;2023-04-28T04:27:02;101096.78;;;3.12;99.25
63654;BME280;49809;47.418;19.080;2023-04-28T04:30:38;101105.41;;;3.27;99.27
63654;BME280;49809;47.418;19.080;2023-04-28T04:34:16;101106.44;;;3.47;97.64
63654;BME280;49809;47.418;19.080;2023-04-28T04:37:52;101103.22;;;3.66;96.99
63654;BME280;49809;47.418;19.080;2023-04-28T04:41:26;101103.59;;;3.84;96.33
63654;BME280;49809;47.418;19.080;2023-04-28T04:44:44;101104.06;;;4.16;95.04
63654;BME280;49809;47.418;19.080;2023-04-28T04:48:02;101104.84;;;4.37;93.72
63654;BME280;49809;47.418;19.080;2023-04-28T04:51:19;101097.34;;;4.62;91.75
63654;BME280;49809;47.418;19.080;2023-04-28T04:54:41;101098.31;;;4.96;90.30
63654;BME280;49809;47.418;19.080;2023-04-28T04:58:09;101109.28;;;5.06;88.46
63654;BME280;49809;47.418;19.080;2023-04-28T05:01:44;101110.38;;;5.31;87.43
63654;BME280;49809;47.418;19.080;2023-04-28T05:05:13;101109.22;;;5.53;86.86
63654;BME280;49809;47.418;19.080;2023-04-28T05:08:38;101096.75;;;5.82;85.46
63654;BME280;49809;47.418;19.080;2023-04-28T05:12:08;101102.28;;;6.00;83.14
63654;BME280;49809;47.418;19.080;2023-04-28T05:15:37;101095.59;;;6.10;79.82
63654;BME280;49809;47.418;19.080;2023-04-28T05:19:10;101099.03;;;6.24;80.33
63654;BME280;49809;47.418;19.080;2023-04-28T05:22:47;101116.81;;;6.35;76.26
63654;BME280;49809;47.418;19.080;2023-04-28T05:26:57;101109.75;;;6.42;75.09
63654;BME280;49809;47.418;19.080;2023-04-28T05:30:18;101118.00;;;6.59;76.21
63654;BME280;49809;47.418;19.080;2023-04-28T05:33:45;101116.00;;;6.54;74.97
63654;BME280;49809;47.418;19.080;2023-04-28T05:37:12;101114.38;;;6.67;74.78
63654;BME280;49809;47.418;19.080;2023-04-28T05:40:44;101107.63;;;6.90;73.51
63654;BME280;49809;47.418;19.080;2023-04-28T05:44:02;101113.25;;;7.01;72.32
63654;BME280;49809;47.418;19.080;2023-04-28T05:47:11;101113.59;;;7.17;72.16
63654;BME280;49809;47.418;19.080;2023-04-28T05:50:39;101112.94;;;7.28;71.25
63654;BME280;49809;47.418;19.080;2023-04-28T05:54:05;101109.13;;;7.62;70.02
63654;BME280;49809;47.418;19.080;2023-04-28T05:57:20;101107.53;;;7.86;68.21
63654;BME280;49809;47.418;19.080;2023-04-28T06:00:25;101111.81;;;7.87;68.06
63654;BME280;49809;47.418;19.080;2023-04-28T06:03:29;101116.00;;;8.19;67.18
63654;BME280;49809;47.418;19.080;2023-04-28T06:07:08;101111.19;;;8.41;66.74
63654;BME280;49809;47.418;19.080;2023-04-28T06:10:12;101120.97;;;8.59;65.28
63654;BME280;49809;47.418;19.080;2023-04-28T06:13:38;101121.28;;;8.87;65.44
63654;BME280;49809;47.418;19.080;2023-04-28T06:17:15;101115.47;;;9.15;64.63
63654;BME280;49809;47.418;19.080;2023-04-28T06:20:23;101117.31;;;9.33;61.69
63654;BME280;49809;47.418;19.080;2023-04-28T06:23:48;101120.50;;;9.94;60.72
63654;BME280;49809;47.418;19.080;2023-04-28T06:26:54;101121.97;;;10.20;60.77
63654;BME280;49809;47.418;19.080;2023-04-28T06:30:17;101123.12;;;10.36;57.99
63654;BME280;49809;47.418;19.080;2023-04-28T06:33:47;101124.38;;;10.57;58.06
63654;BME280;49809;47.418;19.080;2023-04-28T06:37:19;101127.22;;;11.02;56.87
63654;BME280;49809;47.418;19.080;2023-04-28T06:40:24;101117.34;;;11.25;54.76
63654;BME280;49809;47.418;19.080;2023-04-28T06:43:52;101122.06;;;11.35;55.55
63654;BME280;49809;47.418;19.080;2023-04-28T06:47:11;101119.69;;;11.50;54.42
63654;BME280;49809;47.418;19.080;2023-04-28T06:50:29;101119.62;;;11.62;53.94
63654;BME280;49809;47.418;19.080;2023-04-28T06:53:40;101117.44;;;11.87;53.06
63654;BME280;49809;47.418;19.080;2023-04-28T06:56:47;101121.94;;;11.87;52.49
63654;BME280;49809;47.418;19.080;2023-04-28T07:00:06;101125.13;;;12.17;52.69
63654;BME280;49809;47.418;19.080;2023-04-28T07:03:25;101123.09;;;12.41;52.02
63654;BME280;49809;47.418;19.080;2023-04-28T07:06:46;101113.34;;;12.63;51.42
63654;BME280;49809;47.418;19.080;2023-04-28T07:10:37;101104.34;;;12.47;50.63
63654;BME280;49809;47.418;19.080;2023-04-28T07:14:21;101101.06;;;13.00;50.24
63654;BME280;49809;47.418;19.080;2023-04-28T07:18:03;101108.75;;;12.97;49.70
63654;BME280;49809;47.418;19.080;2023-04-28T07:21:31;101102.56;;;13.13;49.84
63654;BME280;49809;47.418;19.080;2023-04-28T07:24:51;101097.59;;;13.17;48.82
63654;BME280;49809;47.418;19.080;2023-04-28T07:28:08;101099.09;;;13.34;49.86
63654;BME280;49809;47.418;19.080;2023-04-28T07:31:35;101099.62;;;14.22;46.50
63654;BME280;49809;47.418;19.080;2023-04-28T07:34:52;101101.28;;;14.70;46.52
63654;BME280;49809;47.418;19.080;2023-04-28T07:38:28;101096.09;;;14.16;46.76
63654;BME280;49809;47.418;19.080;2023-04-28T07:41:46;101087.13;;;15.42;43.96
63654;BME280;49809;47.418;19.080;2023-04-28T07:45:16;101089.91;;;15.77;40.44
63654;BME280;49809;47.418;19.080;2023-04-28T07:48:45;101090.94;;;15.61;41.51
63654;BME280;49809;47.418;19.080;2023-04-28T07:52:04;101085.06;;;15.84;41.55
63654;BME280;49809;47.418;19.080;2023-04-28T07:55:38;101082.38;;;15.59;43.43
63654;BME280;49809;47.418;19.080;2023-04-28T07:59:27;101079.53;;;14.98;40.29
63654;BME280;49809;47.418;19.080;2023-04-28T08:02:46;101074.63;;;16.33;40.47
63654;BME280;49809;47.418;19.080;2023-04-28T08:06:05;101070.06;;;16.59;38.30
63654;BME280;49809;47.418;19.080;2023-04-28T08:09:24;101061.59;;;15.76;38.30
63654;BME280;49809;47.418;19.080;2023-04-28T08:12:29;101059.22;;;16.89;38.83
63654;BME280;49809;47.418;19.080;2023-04-28T08:15:32;101054.66;;;17.83;37.79
63654;BME280;49809;47.418;19.080;2023-04-28T08:19:16;101046.22;;;18.00;36.41
63654;BME280;49809;47.418;19.080;2023-04-28T08:22:47;101031.88;;;17.47;35.54
63654;BME280;49809;47.418;19.080;2023-04-28T08:25:54;101024.84;;;19.27;33.36
63654;BME280;49809;47.418;19.080;2023-04-28T08:29:36;101025.94;;;17.89;32.79
63654;BME280;49809;47.418;19.080;2023-04-28T08:32:58;101019.09;;;18.30;32.63
63654;BME280;49809;47.418;19.080;2023-04-28T08:36:33;101014.34;;;19.31;32.61
63654;BME280;49809;47.418;19.080;2023-04-28T08:39:54;101004.97;;;18.91;32.06
63654;BME280;49809;47.418;19.080;2023-04-28T08:43:37;101010.00;;;20.27;29.85
63654;BME280;49809;47.418;19.080;2023-04-28T08:47:19;101008.62;;;19.70;30.89
63654;BME280;49809;47.418;19.080;2023-04-28T08:51:12;101010.13;;;19.76;30.81
63654;BME280;49809;47.418;19.080;2023-04-28T08:54:34;101011.22;;;20.62;27.64
63654;BME280;49809;47.418;19.080;2023-04-28T08:58:02;101004.34;;;20.56;28.57
63654;BME280;49809;47.418;19.080;2023-04-28T09:01:23;100995.44;;;20.82;28.19
63654;BME280;49809;47.418;19.080;2023-04-28T09:04:47;101005.47;;;21.04;27.00
63654;BME280;49809;47.418;19.080;2023-04-28T09:07:50;100998.94;;;20.83;26.33
63654;BME280;49809;47.418;19.080;2023-04-28T09:11:08;101000.56;;;20.43;27.03
63654;BME280;49809;47.418;19.080;2023-04-28T09:14:17;100999.97;;;20.60;28.87
63654;BME280;49809;47.418;19.080;2023-04-28T09:17:23;101004.56;;;20.46;26.99
63654;BME280;49809;47.418;19.080;2023-04-28T09:20:29;100992.91;;;21.00;26.04
63654;BME280;49809;47.418;19.080;2023-04-28T09:23:34;100996.78;;;20.58;26.28
63654;BME280;49809;47.418;19.080;2023-04-28T09:27:03;100998.56;;;20.76;26.68
63654;BME280;49809;47.418;19.080;2023-04-28T09:30:07;100998.53;;;21.48;25.89
63654;BME280;49809;47.418;19.080;2023-04-28T09:33:27;101001.34;;;21.65;26.26
63654;BME280;49809;47.418;19.080;2023-04-28T09:36:53;100997.78;;;21.78;26.56
63654;BME280;49809;47.418;19.080;2023-04-28T09:46:30;100996.72;;;21.88;25.54
63654;BME280;49809;47.418;19.080;2023-04-28T09:49:55;100989.31;;;21.93;25.12
63654;BME280;49809;47.418;19.080;2023-04-28T09:53:00;100974.22;;;22.88;22.94
63654;BME280;49809;47.418;19.080;2023-04-28T09:56:28;100975.53;;;22.51;23.47
63654;BME280;49809;47.418;19.080;2023-04-28T09:59:52;100965.53;;;22.43;24.76
63654;BME280;49809;47.418;19.080;2023-04-28T10:03:26;100962.06;;;22.03;25.53
63654;BME280;49809;47.418;19.080;2023-04-28T10:07:11;100956.81;;;21.14;25.69
63654;BME280;49809;47.418;19.080;2023-04-28T10:10:56;100949.91;;;22.71;23.79
63654;BME280;49809;47.418;19.080;2023-04-28T10:14:06;100955.56;;;21.74;26.57
63654;BME280;49809;47.418;19.080;2023-04-28T10:17:30;100949.94;;;22.23;25.07
63654;BME280;49809;47.418;19.080;2023-04-28T10:20:34;100937.69;;;22.91;23.21
63654;BME280;49809;47.418;19.080;2023-04-28T10:24:08;100921.72;;;23.41;23.26
63654;BME280;49809;47.418;19.080;2023-04-28T10:27:45;100928.78;;;23.08;23.09
63654;BME280;49809;47.418;19.080;2023-04-28T10:31:10;100923.03;;;22.66;24.37
63654;BME280;49809;47.418;19.080;2023-04-28T10:34:21;100917.28;;;22.25;25.94
63654;BME280;49809;47.418;19.080;2023-04-28T10:38:07;100907.47;;;22.46;25.65
63654;BME280;49809;47.418;19.080;2023-04-28T10:41:33;100906.59;;;22.02;26.58
63654;BME280;49809;47.418;19.080;2023-04-28T10:49:01;100894.84;;;24.29;22.89
63654;BME280;49809;47.418;19.080;2023-04-28T10:56:04;100893.47;;;23.30;24.55
63654;BME280;49809;47.418;19.080;2023-04-28T10:59:29;100883.59;;;23.34;24.07
63654;BME280;49809;47.418;19.080;2023-04-28T11:02:37;100869.94;;;23.86;24.34
63654;BME280;49809;47.418;19.080;2023-04-28T11:09:48;100877.97;;;20.78;27.51
63654;BME280;49809;47.418;19.080;2023-04-28T11:13:28;100865.84;;;20.17;28.05
63654;BME280;49809;47.418;19.080;2023-04-28T11:17:05;100855.72;;;21.79;25.79
63654;BME280;49809;47.418;19.080;2023-04-28T11:20:14;100860.44;;;22.04;26.40
63654;BME280;49809;47.418;19.080;2023-04-28T11:23:23;100863.34;;;21.37;27.23
63654;BME280;49809;47.418;19.080;2023-04-28T11:26:46;100860.44;;;21.11;27.55
63654;BME280;49809;47.418;19.080;2023-04-28T11:29:59;100865.13;;;21.50;25.83
63654;BME280;49809;47.418;19.080;2023-04-28T11:33:23;100855.59;;;20.91;27.15
63654;BME280;49809;47.418;19.080;2023-04-28T11:36:35;100862.19;;;19.59;30.46
63654;BME280;49809;47.418;19.080;2023-04-28T11:39:41;100856.38;;;20.33;28.80
63654;BME280;49809;47.418;19.080;2023-04-28T11:42:53;100862.09;;;19.64;29.32
63654;BME280;49809;47.418;19.080;2023-04-28T11:46:06;100866.25;;;18.35;31.91
63654;BME280;49809;47.418;19.080;2023-04-28T11:49:46;100860.00;;;18.82;31.00
63654;BME280;49809;47.418;19.080;2023-04-28T11:53:17;100854.59;;;19.01;31.25
63654;BME280;49809;47.418;19.080;2023-04-28T11:56:43;100848.19;;;18.64;32.78
63654;BME280;49809;47.418;19.080;2023-04-28T12:00:15;100847.75;;;17.72;33.29
63654;BME280;49809;47.418;19.080;2023-04-28T12:03:45;100841.59;;;17.96;34.11
63654;BME280;49809;47.418;19.080;2023-04-28T12:07:21;100834.41;;;18.52;32.85
63654;BME280;49809;47.418;19.080;2023-04-28T12:11:13;100835.22;;;19.18;32.44
63654;BME280;49809;47.418;19.080;2023-04-28T12:14:22;100828.03;;;18.99;32.31
63654;BME280;49809;47.418;19.080;2023-04-28T12:17:46;100831.09;;;18.60;33.10
63654;BME280;49809;47.418;19.080;2023-04-28T12:20:52;100826.22;;;19.27;32.44
63654;BME280;49809;47.418;19.080;2023-04-28T12:24:32;100814.91;;;18.98;32.08
63654;BME280;49809;47.418;19.080;2023-04-28T12:28:02;100813.50;;;18.87;33.68
63654;BME280;49809;47.418;19.080;2023-04-28T12:31:50;100810.22;;;18.57;34.39
63654;BME280;49809;47.418;19.080;2023-04-28T12:35:14;100807.75;;;18.23;34.29
63654;BME280;49809;47.418;19.080;2023-04-28T12:38:46;100801.72;;;18.50;33.64
63654;BME280;49809;47.418;19.080;2023-04-28T12:42:10;100798.75;;;18.71;33.42
63654;BME280;49809;47.418;19.080;2023-04-28T12:45:58;100783.56;;;19.12;32.21
63654;BME280;49809;47.418;19.080;2023-04-28T12:49:19;100775.81;;;19.38;32.28
63654;BME280;49809;47.418;19.080;2023-04-28T12:53:05;100766.03;;;19.01;33.09
63654;BME280;49809;47.418;19.080;2023-04-28T12:56:34;100754.63;;;18.25;33.96
63654;BME280;49809;47.418;19.080;2023-04-28T12:59:38;100751.34;;;19.94;32.08
63654;BME280;49809;47.418;19.080;2023-04-28T13:02:56;100741.56;;;19.48;31.68
63654;BME280;49809;47.418;19.080;2023-04-28T13:06:35;100729.09;;;19.80;31.72
63654;BME280;49809;47.418;19.080;2023-04-28T13:10:18;100718.37;;;18.14;34.01
63654;BME280;49809;47.418;19.080;2023-04-28T13:14:07;100712.25;;;18.46;34.69
63654;BME280;49809;47.418;19.080;2023-04-28T13:17:24;100715.75;;;19.61;32.01
63654;BME280;49809;47.418;19.080;2023-04-28T13:20:29;100713.78;;;19.53;30.80
63654;BME280;49809;47.418;19.080;2023-04-28T13:24:12;100709.56;;;19.88;31.07
63654;BME280;49809;47.418;19.080;2023-04-28T13:28:00;100709.56;;;20.10;31.50
63654;BME280;49809;47.418;19.080;2023-04-28T13:31:30;100712.78;;;20.34;30.64
63654;BME280;49809;47.418;19.080;2023-04-28T13:34:54;100702.88;;;19.99;30.93
63654;BME280;49809;47.418;19.080;2023-04-28T13:38:20;100708.75;;;18.64;33.17
63654;BME280;49809;47.418;19.080;2023-04-28T13:41:58;100709.84;;;18.45;33.97
63654;BME280;49809;47.418;19.080;2023-04-28T13:45:35;100706.22;;;19.28;32.82
63654;BME280;49809;47.418;19.080;2023-04-28T13:49:02;100702.63;;;18.78;33.78
63654;BME280;49809;47.418;19.080;2023-04-28T13:52:07;100697.09;;;18.88;32.15
63654;BME280;49809;47.418;19.080;2023-04-28T13:55:12;100690.16;;;18.54;33.24
63654;BME280;49809;47.418;19.080;2023-04-28T13:58:30;100682.16;;;18.82;33.25
63654;BME280;49809;47.418;19.080;2023-04-28T14:02:19;100682.25;;;18.77;34.74
63654;BME280;49809;47.418;19.080;2023-04-28T14:05:37;100661.28;;;19.47;32.76
63654;BME280;49809;47.418;19.080;2023-04-28T14:09:10;100659.38;;;19.97;32.60
63654;BME280;49809;47.418;19.080;2023-04-28T14:12:56;100652.97;;;19.21;34.06
63654;BME280;49809;47.418;19.080;2023-04-28T14:16:20;100648.97;;;19.32;33.29
63654;BME280;49809;47.418;19.080;2023-04-28T14:20:04;100649.97;;;19.23;32.99
63654;BME280;49809;47.418;19.080;2023-04-28T14:23:10;100644.44;;;18.92;33.84
63654;BME280;49809;47.418;19.080;2023-04-28T14:26:29;100646.91;;;19.02;33.37
63654;BME280;49809;47.418;19.080;2023-04-28T14:29:48;100652.56;;;18.87;34.25
63654;BME280;49809;47.418;19.080;2023-04-28T14:33:17;100656.34;;;18.86;34.66
63654;BME280;49809;47.418;19.080;2023-04-28T14:36:34;100642.22;;;18.66;34.96
63654;BME280;49809;47.418;19.080;2023-04-28T14:40:13;100643.31;;;18.93;34.27
63654;BME280;49809;47.418;19.080;2023-04-28T14:43:36;100635.47;;;19.24;33.58
63654;BME280;49809;47.418;19.080;2023-04-28T14:46:42;100624.69;;;19.37;33.17
63654;BME280;49809;47.418;19.080;2023-04-28T14:49:57;100636.66;;;19.18;33.73
63654;BME280;49809;47.418;19.080;2023-04-28T14:53:45;100627.91;;;19.26;33.64
63654;BME280;49809;47.418;19.080;2023-04-28T14:56:49;100621.28;;;18.96;33.57
63654;BME280;49809;47.418;19.080;2023-04-28T15:00:13;100623.66;;;19.11;33.67
63654;BME280;49809;47.418;19.080;2023-04-28T15:03:50;100612.63;;;18.85;35.25
63654;BME280;49809;47.418;19.080;2023-04-28T15:07:08;100604.66;;;18.94;34.85
63654;BME280;49809;47.418;19.080;2023-04-28T15:10:25;100614.69;;;19.16;34.96
63654;BME280;49809;47.418;19.080;2023-04-28T15:13:56;100599.72;;;18.87;35.43
63654;BME280;49809;47.418;19.080;2023-04-28T15:17:27;100607.66;;;18.79;35.87
63654;BME280;49809;47.418;19.080;2023-04-28T15:21:02;100608.25;;;18.89;36.21
63654;BME280;49809;47.418;19.080;2023-04-28T15:24:43;100591.97;;;18.58;35.61
63654;BME280;49809;47.418;19.080;2023-04-28T15:27:46;100603.50;;;18.27;37.23
63654;BME280;49809;47.418;19.080;2023-04-28T15:31:19;100590.06;;;18.13;38.40
63654;BME280;49809;47.418;19.080;2023-04-28T15:34:49;100599.28;;;18.07;37.83
63654;BME280;49809;47.418;19.080;2023-04-28T15:38:27;100589.63;;;18.06;38.22
63654;BME280;49809;47.418;19.080;2023-04-28T15:41:47;100597.22;;;17.85;38.52
63654;BME280;49809;47.418;19.080;2023-04-28T15:45:07;100592.87;;;17.89;38.56
63654;BME280;49809;47.418;19.080;2023-04-28T15:52:02;100591.28;;;17.32;39.62
63654;BME280;49809;47.418;19.080;2023-04-28T15:55:39;100597.25;;;17.24;40.00
63654;BME280;49809;47.418;19.080;2023-04-28T15:59:17;100586.78;;;17.09;40.23
63654;BME280;49809;47.418;19.080;2023-04-28T16:03:27;100570.34;;;16.97;41.35
63654;BME280;49809;47.418;19.080;2023-04-28T16:07:10;100572.56;;;16.89;41.39
63654;BME280;49809;47.418;19.080;2023-04-28T16:10:56;100567.78;;;16.86;41.85
63654;BME280;49809;47.418;19.080;2023-04-28T16:14:17;100563.59;;;16.80;41.83
63654;BME280;49809;47.418;19.080;2023-04-28T16:17:56;100563.84;;;16.60;42.26
63654;BME280;49809;47.418;19.080;2023-04-28T16:21:31;100561.75;;;16.52;42.78
63654;BME280;49809;47.418;19.080;2023-04-28T16:25:14;100562.16;;;16.40;42.97
63654;BME280;49809;47.418;19.080;2023-04-28T16:28:34;100558.44;;;16.36;43.85
63654;BME280;49809;47.418;19.080;2023-04-28T16:32:02;100554.47;;;16.34;43.52
63654;BME280;49809;47.418;19.080;2023-04-28T16:35:20;100546.59;;;16.19;44.21
63654;BME280;49809;47.418;19.080;2023-04-28T16:39:00;100549.66;;;16.07;44.22
63654;BME280;49809;47.418;19.080;2023-04-28T16:42:37;100537.47;;;15.96;44.74
63654;BME280;49809;47.418;19.080;2023-04-28T16:45:55;100530.66;;;16.08;44.66
63654;BME280;49809;47.418;19.080;2023-04-28T16:49:29;100525.94;;;16.00;44.87
63654;BME280;49809;47.418;19.080;2023-04-28T16:53:04;100524.16;;;15.91;45.03
63654;BME280;49809;47.418;19.080;2023-04-28T16:56:22;100521.75;;;15.89;45.38
63654;BME280;49809;47.418;19.080;2023-04-28T16:59:57;100512.69;;;15.90;45.15
63654;BME280;49809;47.418;19.080;2023-04-28T17:03:32;100506.94;;;16.07;44.55
63654;BME280;49809;47.418;19.080;2023-04-28T17:06:52;100509.41;;;15.98;45.04
63654;BME280;49809;47.418;19.080;2023-04-28T17:10:12;100502.66;;;15.77;46.12
63654;BME280;49809;47.418;19.080;2023-04-28T17:13:43;100493.69;;;15.68;46.47
63654;BME280;49809;47.418;19.080;2023-04-28T17:17:18;100495.41;;;15.54;47.27
63654;BME280;49809;47.418;19.080;2023-04-28T17:24:15;100472.59;;;15.67;46.53
63654;BME280;49809;47.418;19.080;2023-04-28T17:27:54;100469.25;;;15.46;47.05
63654;BME280;49809;47.418;19.080;2023-04-28T17:31:12;100463.44;;;15.44;47.18
63654;BME280;49809;47.418;19.080;2023-04-28T17:34:50;100458.13;;;15.39;47.42
63654;BME280;49809;47.418;19.080;2023-04-28T17:38:33;100455.50;;;15.34;47.08
63654;BME280;49809;47.418;19.080;2023-04-28T17:42:06;100464.66;;;15.22;47.69
63654;BME280;49809;47.418;19.080;2023-04-28T17:45:26;100479.84;;;15.22;47.71
63654;BME280;49809;47.418;19.080;2023-04-28T17:49:01;100485.09;;;14.93;49.36
63654;BME280;49809;47.418;19.080;2023-04-28T17:52:39;100489.34;;;14.94;49.24
63654;BME280;49809;47.418;19.080;2023-04-28T17:56:15;100483.94;;;15.09;48.59
63654;BME280;49809;47.418;19.080;2023-04-28T17:59:48;100486.66;;;14.99;49.15
63654;BME280;49809;47.418;19.080;2023-04-28T18:03:13;100492.59;;;14.86;49.99
63654;BME280;49809;47.418;19.080;2023-04-28T18:06:50;100493.12;;;14.83;50.37
63654;BME280;49809;47.418;19.080;2023-04-28T18:10:19;100490.50;;;14.78;50.89
63654;BME280;49809;47.418;19.080;2023-04-28T18:21:11;100506.84;;;14.56;52.93
63654;BME280;49809;47.418;19.080;2023-04-28T18:35:34;100509.84;;;14.04;60.80
63654;BME280;49809;47.418;19.080;2023-04-28T18:39:11;100504.31;;;13.75;62.20
63654;BME280;49809;47.418;19.080;2023-04-28T18:42:49;100506.19;;;13.60;64.07